Time;durP1;ratioP1;P1;durP2;ratioP2;P2;SDS_P1;SDS_P2;PMS_P1;PMS_P2;Temp;Humidity;BMP_temperature;BMP_pressure;BME280_temperature;BME280_humidity;BME280_pressure;Samples;Min_cycle;Max_cycle;Signal;HPM_P1;HPM_P2
2023/04/11 00:00:36;;;;;;;3.17;2.47;;;;;;;;;;5037274;28;20280;-80
2023/04/11 00:03:02;;;;;;;3.67;2.60;;;;;;;;;;5053569;28;20243;-80
2023/04/11 00:05:30;;;;;;;5.40;3.00;;;;;;;;;;5053122;28;20276;-81
2023/04/11 00:07:56;;;;;;;4.13;3.10;;;;;;;;;;5053820;28;20181;-80
2023/04/11 00:10:22;;;;;;;3.33;2.80;;;;;;;;;;5054688;28;20185;-80
2023/04/11 00:12:49;;;;;;;3.27;2.90;;;;;;;;;;5053838;28;20256;-81
2023/04/11 00:15:15;;;;;;;3.30;3.00;;;;;;;;;;5053428;28;20182;-81
2023/04/11 00:17:44;;;;;;;3.07;2.50;;;;;;;;;;5054569;28;20240;-81
2023/04/11 00:20:11;;;;;;;3.73;2.70;;;;;;;;;;5037037;28;20191;-80
2023/04/11 00:22:38;;;;;;;3.80;3.30;;;;;;;;;;5051330;28;20202;-82
2023/04/11 00:25:04;;;;;;;2.97;2.67;;;;;;;;;;5053046;28;20214;-80
2023/04/11 00:27:31;;;;;;;3.13;2.83;;;;;;;;;;5052255;28;20280;-79
2023/04/11 00:29:57;;;;;;;3.33;2.67;;;;;;;;;;5051963;28;20236;-79
2023/04/11 00:32:23;;;;;;;4.20;2.70;;;;;;;;;;5053140;28;20200;-79
2023/04/11 00:34:50;;;;;;;3.00;2.70;;;;;;;;;;5053967;28;20169;-81
2023/04/11 00:37:20;;;;;;;3.77;2.80;;;;;;;;;;5052656;28;20186;-82
2023/04/11 00:39:49;;;;;;;4.00;2.93;;;;;;;;;;5054612;28;20546;-80
2023/04/11 00:42:16;;;;;;;2.70;2.47;;;;;;;;;;5041401;28;20197;-80
2023/04/11 00:44:42;;;;;;;3.03;2.73;;;;;;;;;;5036930;28;20177;-80
2023/04/11 00:47:09;;;;;;;2.60;2.40;;;;;;;;;;5051252;28;20300;-80
2023/04/11 00:49:35;;;;;;;3.17;2.47;;;;;;;;;;5046132;28;20186;-81
2023/04/11 00:52:02;;;;;;;4.23;3.17;;;;;;;;;;5049536;28;20702;-80
2023/04/11 00:54:29;;;;;;;3.97;2.80;;;;;;;;;;5036398;28;20181;-80
2023/04/11 00:57:00;;;;;;;2.80;2.50;;;;;;;;;;5053023;28;20206;-80
2023/04/11 00:59:30;;;;;;;3.23;2.70;;;;;;;;;;5048148;28;20666;-81
2023/04/11 01:01:57;;;;;;;3.27;2.77;;;;;;;;;;5033690;28;20194;-81
2023/04/11 01:04:25;;;;;;;3.10;2.50;;;;;;;;;;5032752;28;20635;-81
2023/04/11 01:06:54;;;;;;;2.73;2.50;;;;;;;;;;5033737;28;20693;-80
2023/04/11 01:09:21;;;;;;;3.57;2.77;;;;;;;;;;5015977;28;20521;-80
2023/04/11 01:11:50;;;;;;;3.20;2.50;;;;;;;;;;5032227;28;20183;-81
2023/04/11 01:14:17;;;;;;;3.60;2.97;;;;;;;;;;5048811;28;20665;-80
2023/04/11 01:16:46;;;;;;;3.33;2.83;;;;;;;;;;5050001;28;20282;-80
2023/04/11 01:19:17;;;;;;;6.10;2.93;;;;;;;;;;5036317;28;20181;-80
2023/04/11 01:21:44;;;;;;;3.17;2.87;;;;;;;;;;5052212;28;20213;-81
2023/04/11 01:24:10;;;;;;;4.27;2.87;;;;;;;;;;5052184;28;20583;-80
2023/04/11 01:26:36;;;;;;;4.40;3.10;;;;;;;;;;5052031;28;20246;-80
2023/04/11 01:29:04;;;;;;;3.30;3.00;;;;;;;;;;5051485;28;20178;-80
2023/04/11 01:31:31;;;;;;;4.60;3.10;;;;;;;;;;5035438;28;20173;-80
2023/04/11 01:33:58;;;;;;;3.70;2.97;;;;;;;;;;5035279;28;20206;-80
2023/04/11 01:36:25;;;;;;;3.90;2.40;;;;;;;;;;5035631;28;20196;-80
2023/04/11 01:38:52;;;;;;;2.47;2.27;;;;;;;;;;5053196;28;20877;-80
2023/04/11 01:41:19;;;;;;;3.43;2.17;;;;;;;;;;5052812;28;20201;-81
2023/04/11 01:43:46;;;;;;;4.00;2.60;;;;;;;;;;5051759;28;20259;-80
2023/04/11 01:46:13;;;;;;;2.87;1.90;;;;;;;;;;5052966;28;20194;-82
2023/04/11 01:48:39;;;;;;;1.90;1.70;;;;;;;;;;5068504;28;20174;-81
2023/04/11 01:51:06;;;;;;;1.40;1.27;;;;;;;;;;5051959;28;20189;-80
2023/04/11 01:53:32;;;;;;;1.23;1.13;;;;;;;;;;5068044;28;20217;-80
2023/04/11 01:55:58;;;;;;;1.83;1.40;;;;;;;;;;5046861;28;20596;-80
2023/04/11 01:58:24;;;;;;;1.73;1.20;;;;;;;;;;5035249;28;20811;-80
2023/04/11 02:00:50;;;;;;;1.63;1.20;;;;;;;;;;5051480;28;20259;-80
2023/04/11 02:03:20;;;;;;;1.10;1.00;;;;;;;;;;5051063;28;20201;-80
2023/04/11 02:05:46;;;;;;;1.47;1.20;;;;;;;;;;5050496;28;20289;-80
2023/04/11 02:08:12;;;;;;;1.93;1.27;;;;;;;;;;5068202;28;20276;-80
2023/04/11 02:10:38;;;;;;;1.77;1.20;;;;;;;;;;5052208;28;20493;-80
2023/04/11 02:13:04;;;;;;;1.30;1.20;;;;;;;;;;5034192;28;20256;-80
2023/04/11 02:15:31;;;;;;;1.83;1.20;;;;;;;;;;5067628;28;20182;-81
2023/04/11 02:17:59;;;;;;;2.00;1.10;;;;;;;;;;5050981;28;20186;-80
2023/04/11 02:20:26;;;;;;;1.30;1.20;;;;;;;;;;5047814;28;20179;-80
2023/04/11 02:22:52;;;;;;;1.30;1.00;;;;;;;;;;5035230;28;20552;-80
2023/04/11 02:25:19;;;;;;;1.83;1.10;;;;;;;;;;5031073;28;20269;-80
2023/04/11 02:27:45;;;;;;;2.27;1.10;;;;;;;;;;5030835;28;20206;-80
2023/04/11 02:30:11;;;;;;;2.70;1.20;;;;;;;;;;5033415;28;20182;-80
2023/04/11 02:32:37;;;;;;;1.67;1.13;;;;;;;;;;5046895;28;20921;-80
2023/04/11 02:35:06;;;;;;;1.80;1.23;;;;;;;;;;5030838;28;20181;-80
2023/04/11 02:37:32;;;;;;;1.73;1.40;;;;;;;;;;5014346;28;20194;-80
2023/04/11 02:39:59;;;;;;;2.30;1.10;;;;;;;;;;5031912;28;20175;-81
2023/04/11 02:42:25;;;;;;;1.30;1.07;;;;;;;;;;5031236;28;20202;-80
2023/04/11 02:44:55;;;;;;;1.90;0.97;;;;;;;;;;5021158;28;20709;-81
2023/04/11 02:47:26;;;;;;;1.27;0.80;;;;;;;;;;5030992;28;20266;-80
2023/04/11 02:49:54;;;;;;;1.90;0.97;;;;;;;;;;5033800;28;20197;-82
2023/04/11 02:52:26;;;;;;;2.20;1.00;;;;;;;;;;5063353;28;20215;-81
2023/04/11 02:54:52;;;;;;;3.53;1.10;;;;;;;;;;5047418;28;20186;-80
2023/04/11 02:57:18;;;;;;;1.57;1.00;;;;;;;;;;5048378;28;20179;-82
2023/04/11 02:59:45;;;;;;;2.20;1.00;;;;;;;;;;5050587;28;20225;-81
2023/04/11 03:02:12;;;;;;;2.00;1.00;;;;;;;;;;5050279;28;20693;-80
2023/04/11 03:04:38;;;;;;;2.50;1.03;;;;;;;;;;5051815;28;20178;-80
2023/04/11 03:07:11;;;;;;;1.90;1.00;;;;;;;;;;5050430;28;20194;-80
2023/04/11 03:09:37;;;;;;;2.40;0.90;;;;;;;;;;5033280;28;20246;-80
2023/04/11 03:12:05;;;;;;;3.03;1.20;;;;;;;;;;5047507;28;20290;-80
2023/04/11 03:14:32;;;;;;;1.37;0.90;;;;;;;;;;5048648;28;20293;-80
2023/04/11 03:16:58;;;;;;;1.70;0.90;;;;;;;;;;5048322;28;20265;-80
2023/04/11 03:19:24;;;;;;;2.50;1.00;;;;;;;;;;5047937;28;20199;-81
2023/04/11 03:21:50;;;;;;;1.63;1.10;;;;;;;;;;5065199;28;20261;-80
2023/04/11 03:24:17;;;;;;;2.70;1.10;;;;;;;;;;5049799;28;20220;-80
2023/04/11 03:26:43;;;;;;;2.00;0.97;;;;;;;;;;5050977;28;20237;-80
2023/04/11 03:29:13;;;;;;;3.50;1.10;;;;;;;;;;5033887;28;20188;-80
2023/04/11 03:31:52;;;;;;;1.40;1.10;;;;;;;;;;5033238;28;20272;-80
2023/04/11 03:34:20;;;;;;;2.23;1.00;;;;;;;;;;5065581;28;20162;-80
2023/04/11 03:36:46;;;;;;;3.00;1.50;;;;;;;;;;5049837;28;20265;-80
2023/04/11 03:39:13;;;;;;;4.30;2.57;;;;;;;;;;5059036;28;20190;-80
2023/04/11 03:41:39;;;;;;;3.43;1.97;;;;;;;;;;5033500;28;20186;-80
2023/04/11 03:44:08;;;;;;;2.57;1.60;;;;;;;;;;5050003;28;20182;-80
2023/04/11 03:46:34;;;;;;;1.20;1.10;;;;;;;;;;5049862;28;20750;-81
2023/04/11 03:49:00;;;;;;;2.77;1.20;;;;;;;;;;5050098;28;20197;-80
2023/04/11 03:51:26;;;;;;;1.83;1.10;;;;;;;;;;5049870;28;20170;-80
2023/04/11 03:54:01;;;;;;;1.57;0.90;;;;;;;;;;5042221;28;20270;-80
2023/04/11 03:56:32;;;;;;;2.03;1.00;;;;;;;;;;5050644;28;20176;-80
2023/04/11 03:58:59;;;;;;;1.60;0.90;;;;;;;;;;5050160;28;20186;-81
2023/04/11 04:01:31;;;;;;;3.73;1.00;;;;;;;;;;5049814;28;20174;-80
2023/04/11 04:04:01;;;;;;;1.83;1.17;;;;;;;;;;5033784;28;20233;-81
2023/04/11 04:06:28;;;;;;;2.17;1.00;;;;;;;;;;5049945;28;20212;-80
2023/04/11 04:08:56;;;;;;;2.93;1.07;;;;;;;;;;5049927;28;20186;-80
2023/04/11 04:11:22;;;;;;;1.83;1.00;;;;;;;;;;5033622;28;20245;-80
2023/04/11 04:13:49;;;;;;;4.30;1.10;;;;;;;;;;5066330;28;20201;-80
2023/04/11 04:16:17;;;;;;;0.97;0.80;;;;;;;;;;5050068;28;20193;-80
2023/04/11 04:18:49;;;;;;;2.23;1.03;;;;;;;;;;5065616;28;20269;-80
2023/04/11 04:21:15;;;;;;;1.97;0.90;;;;;;;;;;5033544;28;20533;-81
2023/04/11 04:23:46;;;;;;;1.17;0.90;;;;;;;;;;5032703;28;20250;-80
2023/04/11 04:26:30;;;;;;;2.17;0.90;;;;;;;;;;5033135;28;20285;-80
2023/04/11 04:29:08;;;;;;;2.27;0.93;;;;;;;;;;5049752;28;20177;-80
2023/04/11 04:31:51;;;;;;;1.13;1.00;;;;;;;;;;5055787;28;20200;-80
2023/04/11 04:34:23;;;;;;;2.80;0.90;;;;;;;;;;5040122;28;20182;-80
2023/04/11 04:36:58;;;;;;;0.90;0.80;;;;;;;;;;5057869;28;20181;-80
2023/04/11 04:39:32;;;;;;;3.23;2.40;;;;;;;;;;5071005;28;20178;-80
2023/04/11 04:41:59;;;;;;;4.83;3.07;;;;;;;;;;5056615;28;20194;-84
2023/04/11 04:44:32;;;;;;;3.77;2.37;;;;;;;;;;5037942;28;20172;-80
2023/04/11 04:47:03;;;;;;;2.23;1.80;;;;;;;;;;5052971;28;20312;-82
2023/04/11 04:49:30;;;;;;;3.80;1.80;;;;;;;;;;5052445;28;20225;-80
2023/04/11 04:51:56;;;;;;;2.23;1.37;;;;;;;;;;5066669;28;20182;-80
2023/04/11 04:54:22;;;;;;;1.77;1.30;;;;;;;;;;5032504;28;20746;-80
2023/04/11 04:56:48;;;;;;;1.97;1.10;;;;;;;;;;5049268;28;20202;-82
2023/04/11 04:59:15;;;;;;;5.13;1.43;;;;;;;;;;5049827;28;20177;-81
2023/04/11 05:01:49;;;;;;;1.60;1.10;;;;;;;;;;5049335;28;20171;-80
2023/04/11 05:04:17;;;;;;;1.37;1.00;;;;;;;;;;5049278;28;20527;-81
2023/04/11 05:06:48;;;;;;;1.00;0.90;;;;;;;;;;5045139;28;20208;-80
2023/04/11 05:09:16;;;;;;;2.70;1.20;;;;;;;;;;5035841;28;20174;-80
2023/04/11 05:11:42;;;;;;;2.47;1.40;;;;;;;;;;5051939;28;20182;-80
2023/04/11 05:14:09;;;;;;;3.73;1.53;;;;;;;;;;5035789;28;20567;-80
2023/04/11 05:16:38;;;;;;;2.30;1.53;;;;;;;;;;5035891;28;20188;-81
2023/04/11 05:19:05;;;;;;;2.10;1.50;;;;;;;;;;5052764;28;20622;-80
2023/04/11 05:21:34;;;;;;;2.43;1.33;;;;;;;;;;5052517;28;20205;-81
2023/04/11 05:24:01;;;;;;;3.47;1.33;;;;;;;;;;5018880;28;20209;-80
2023/04/11 05:26:33;;;;;;;4.20;1.60;;;;;;;;;;5045304;28;20293;-80
2023/04/11 05:28:59;;;;;;;2.73;1.57;;;;;;;;;;5037208;28;20170;-80
2023/04/11 05:31:27;;;;;;;4.30;1.40;;;;;;;;;;5051652;28;20174;-81
2023/04/11 05:33:54;;;;;;;1.80;1.17;;;;;;;;;;5052533;28;20297;-80
2023/04/11 05:36:20;;;;;;;2.80;1.30;;;;;;;;;;5035401;28;20842;-80
2023/04/11 05:38:46;;;;;;;2.13;1.13;;;;;;;;;;5039813;28;20194;-81
2023/04/11 05:41:12;;;;;;;1.63;1.00;;;;;;;;;;5050961;28;20183;-82
2023/04/11 05:43:38;;;;;;;1.27;1.00;;;;;;;;;;5047344;28;20300;-82
2023/04/11 05:46:06;;;;;;;2.87;1.30;;;;;;;;;;5050602;28;20213;-80
2023/04/11 05:48:33;;;;;;;1.63;1.13;;;;;;;;;;5051979;28;20681;-81
2023/04/11 05:50:59;;;;;;;2.90;1.43;;;;;;;;;;5051414;28;20188;-80
2023/04/11 05:53:25;;;;;;;2.53;1.50;;;;;;;;;;5052581;28;20213;-80
2023/04/11 05:55:52;;;;;;;2.93;1.97;;;;;;;;;;5034806;28;20217;-80
2023/04/11 05:58:18;;;;;;;4.30;2.43;;;;;;;;;;5068238;28;20200;-80
2023/04/11 06:00:44;;;;;;;4.83;2.40;;;;;;;;;;5051909;28;20209;-80
2023/04/11 06:03:11;;;;;;;4.43;1.93;;;;;;;;;;5051271;28;20202;-80
2023/04/11 06:05:37;;;;;;;3.10;1.93;;;;;;;;;;5051705;28;20356;-80
2023/04/11 06:08:04;;;;;;;4.47;1.90;;;;;;;;;;5052645;28;20173;-81
2023/04/11 06:10:31;;;;;;;2.37;1.50;;;;;;;;;;5052420;28;20184;-80
2023/04/11 06:12:57;;;;;;;4.57;1.77;;;;;;;;;;5035024;28;20225;-80
2023/04/11 06:15:24;;;;;;;3.63;1.70;;;;;;;;;;5051343;28;20174;-80
2023/04/11 06:17:50;;;;;;;1.90;1.30;;;;;;;;;;5051835;28;20216;-80
2023/04/11 06:20:16;;;;;;;1.53;1.27;;;;;;;;;;5044356;28;20205;-80
2023/04/11 06:22:45;;;;;;;2.23;1.37;;;;;;;;;;5048262;28;20550;-80
2023/04/11 06:25:11;;;;;;;2.30;1.60;;;;;;;;;;5052698;28;20168;-80
2023/04/11 06:27:37;;;;;;;2.47;1.50;;;;;;;;;;5052254;28;20201;-80
2023/04/11 06:30:04;;;;;;;2.47;1.73;;;;;;;;;;5051002;28;20189;-76
2023/04/11 06:32:30;;;;;;;2.23;1.40;;;;;;;;;;5050979;28;20190;-76
2023/04/11 06:34:56;;;;;;;2.20;1.60;;;;;;;;;;5048905;28;20623;-76
2023/04/11 06:37:22;;;;;;;3.53;1.60;;;;;;;;;;5031805;28;20174;-76
2023/04/11 06:39:49;;;;;;;2.67;1.80;;;;;;;;;;5031816;28;20171;-77
2023/04/11 06:42:15;;;;;;;4.87;2.03;;;;;;;;;;5033444;28;20194;-76
2023/04/11 06:44:44;;;;;;;3.87;1.80;;;;;;;;;;5027320;28;20256;-76
2023/04/11 06:47:10;;;;;;;3.83;1.93;;;;;;;;;;5042082;28;20212;-77
2023/04/11 06:49:37;;;;;;;3.70;2.03;;;;;;;;;;5051548;28;20275;-77
2023/04/11 06:52:03;;;;;;;4.73;1.70;;;;;;;;;;5031574;28;20263;-77
2023/04/11 06:54:29;;;;;;;6.60;2.10;;;;;;;;;;5045407;28;20599;-77
2023/04/11 06:56:56;;;;;;;4.50;2.10;;;;;;;;;;5045455;28;20220;-77
2023/04/11 06:59:22;;;;;;;5.17;2.03;;;;;;;;;;5040212;28;20216;-77
2023/04/11 07:01:49;;;;;;;6.10;1.90;;;;;;;;;;5049460;28;20190;-76
2023/04/11 07:04:15;;;;;;;3.13;1.63;;;;;;;;;;5050946;28;20197;-76
2023/04/11 07:06:41;;;;;;;5.93;1.83;;;;;;;;;;5051716;28;20217;-78
2023/04/11 07:09:11;;;;;;;4.93;1.97;;;;;;;;;;5051703;28;20189;-80
2023/04/11 07:11:38;;;;;;;5.63;2.10;;;;;;;;;;5050596;28;20252;-80
2023/04/11 07:14:04;;;;;;;5.50;1.90;;;;;;;;;;5032876;28;20205;-77
2023/04/11 07:16:30;;;;;;;6.10;2.00;;;;;;;;;;5031837;28;20179;-77
2023/04/11 07:18:56;;;;;;;6.77;2.10;;;;;;;;;;5049766;28;20680;-78
2023/04/11 07:21:22;;;;;;;6.23;1.80;;;;;;;;;;5038168;28;20657;-77
2023/04/11 07:23:48;;;;;;;7.00;2.00;;;;;;;;;;5050348;28;20209;-75
2023/04/11 07:26:15;;;;;;;8.10;2.10;;;;;;;;;;5050995;28;20694;-76
2023/04/11 07:28:43;;;;;;;5.57;1.97;;;;;;;;;;5050198;28;20201;-82
2023/04/11 07:31:11;;;;;;;5.20;1.80;;;;;;;;;;5046090;28;20186;-75
2023/04/11 07:33:37;;;;;;;5.53;1.97;;;;;;;;;;5044095;28;20204;-75
2023/04/11 07:36:04;;;;;;;5.63;2.00;;;;;;;;;;5048583;28;20193;-75
2023/04/11 07:38:30;;;;;;;5.83;1.83;;;;;;;;;;5038317;28;20654;-75
2023/04/11 07:40:57;;;;;;;6.37;1.90;;;;;;;;;;5044842;28;20190;-75
2023/04/11 07:43:23;;;;;;;3.03;1.50;;;;;;;;;;5046379;28;20628;-75
2023/04/11 07:45:49;;;;;;;7.87;1.60;;;;;;;;;;5048925;28;20182;-75
2023/04/11 07:48:15;;;;;;;4.23;1.40;;;;;;;;;;5050484;28;20656;-76
2023/04/11 07:50:42;;;;;;;5.13;1.70;;;;;;;;;;5050750;28;20193;-75
2023/04/11 07:53:09;;;;;;;10.27;2.00;;;;;;;;;;5049357;28;20614;-76
2023/04/11 07:55:38;;;;;;;5.60;1.50;;;;;;;;;;5050776;28;20193;-76
2023/04/11 07:58:05;;;;;;;5.87;1.60;;;;;;;;;;5050530;28;20244;-75
2023/04/11 08:00:32;;;;;;;7.33;1.80;;;;;;;;;;5049356;28;20178;-75
2023/04/11 08:03:01;;;;;;;5.00;1.63;;;;;;;;;;5050119;28;20194;-76
2023/04/11 08:05:29;;;;;;;14.20;6.37;;;;;;;;;;5047808;28;20201;-75
2023/04/11 08:07:56;;;;;;;6.83;2.50;;;;;;;;;;5031727;28;20203;-75
2023/04/11 08:10:22;;;;;;;6.40;1.83;;;;;;;;;;5049227;28;20185;-75
2023/04/11 08:12:48;;;;;;;6.17;1.70;;;;;;;;;;5053936;28;20216;-75
2023/04/11 08:15:14;;;;;;;7.87;1.70;;;;;;;;;;5054447;28;20178;-75
2023/04/11 08:17:42;;;;;;;7.63;1.77;;;;;;;;;;5054815;28;20522;-75
2023/04/11 08:20:10;;;;;;;6.13;1.80;;;;;;;;;;5054450;28;20231;-76
2023/04/11 08:22:38;;;;;;;5.77;1.53;;;;;;;;;;5052846;28;20221;-75
2023/04/11 08:25:05;;;;;;;5.87;1.87;;;;;;;;;;5054058;28;20181;-77
2023/04/11 08:27:31;;;;;;;5.03;1.40;;;;;;;;;;5053077;28;20215;-75
2023/04/11 08:29:58;;;;;;;3.40;1.50;;;;;;;;;;5054613;28;20646;-75
2023/04/11 08:32:24;;;;;;;4.03;1.50;;;;;;;;;;5052753;28;20197;-75
2023/04/11 08:34:51;;;;;;;6.87;1.73;;;;;;;;;;5050639;28;20657;-75
2023/04/11 08:37:17;;;;;;;7.30;1.57;;;;;;;;;;5054066;28;20196;-75
2023/04/11 08:39:43;;;;;;;7.33;1.70;;;;;;;;;;5054150;28;20657;-75
2023/04/11 08:42:22;;;;;;;5.43;1.60;;;;;;;;;;5052332;28;20245;-75
2023/04/11 08:44:55;;;;;;;3.63;1.40;;;;;;;;;;5052896;28;20231;-75
2023/04/11 08:47:22;;;;;;;5.63;1.60;;;;;;;;;;5053667;28;20756;-75
2023/04/11 08:49:49;;;;;;;4.93;1.50;;;;;;;;;;5052446;28;20469;-75
2023/04/11 08:52:16;;;;;;;4.90;1.40;;;;;;;;;;5053268;28;20693;-75
2023/04/11 08:54:43;;;;;;;4.70;1.40;;;;;;;;;;5053657;28;20209;-75
2023/04/11 08:57:13;;;;;;;5.37;1.40;;;;;;;;;;5053771;28;20186;-75
2023/04/11 08:59:49;;;;;;;6.23;1.63;;;;;;;;;;5051933;28;20214;-75
2023/04/11 09:02:16;;;;;;;5.13;1.30;;;;;;;;;;5050554;28;20578;-76
2023/04/11 09:04:43;;;;;;;5.27;1.50;;;;;;;;;;5058091;28;20272;-76
2023/04/11 09:07:12;;;;;;;5.40;1.30;;;;;;;;;;5053526;28;20231;-75
2023/04/11 09:09:38;;;;;;;5.50;1.40;;;;;;;;;;5058352;28;20649;-75
2023/04/11 09:12:05;;;;;;;8.73;1.60;;;;;;;;;;5053247;28;20217;-75
2023/04/11 09:14:32;;;;;;;5.40;1.67;;;;;;;;;;5053353;28;20174;-77
2023/04/11 09:17:05;;;;;;;6.13;1.63;;;;;;;;;;5053293;28;20182;-78
2023/04/11 09:19:32;;;;;;;6.10;1.70;;;;;;;;;;5032633;28;20652;-77
2023/04/11 09:21:59;;;;;;;4.80;1.50;;;;;;;;;;5033295;28;20205;-77
2023/04/11 09:24:29;;;;;;;5.17;1.50;;;;;;;;;;5032963;28;20171;-77
2023/04/11 09:27:10;;;;;;;4.53;1.43;;;;;;;;;;5033150;28;20202;-77
2023/04/11 09:29:39;;;;;;;4.77;1.40;;;;;;;;;;5033885;28;20241;-76
2023/04/11 09:32:05;;;;;;;6.00;1.50;;;;;;;;;;5049268;28;20205;-77
2023/04/11 09:34:33;;;;;;;6.63;1.40;;;;;;;;;;5050730;28;20696;-77
2023/04/11 09:37:00;;;;;;;5.67;1.43;;;;;;;;;;5052874;28;20263;-77
2023/04/11 09:39:28;;;;;;;3.53;1.50;;;;;;;;;;5052839;28;20324;-77
2023/04/11 09:41:55;;;;;;;6.17;1.53;;;;;;;;;;5051271;28;20174;-77
2023/04/11 09:44:42;;;;;;;5.67;1.63;;;;;;;;;;5052043;28;20208;-77
2023/04/11 09:47:08;;;;;;;10.20;2.50;;;;;;;;;;5051989;28;20205;-77
2023/04/11 09:49:35;;;;;;;6.50;1.53;;;;;;;;;;5053065;28;20190;-77
2023/04/11 09:52:01;;;;;;;4.83;1.60;;;;;;;;;;5050679;28;20769;-77
2023/04/11 09:54:28;;;;;;;4.57;1.57;;;;;;;;;;5052732;28;20587;-77
2023/04/11 09:56:54;;;;;;;4.40;1.30;;;;;;;;;;5048481;28;20186;-77
2023/04/11 09:59:21;;;;;;;4.93;1.20;;;;;;;;;;5052813;28;20203;-77
2023/04/11 10:01:48;;;;;;;3.50;1.20;;;;;;;;;;5050370;28;20189;-77
2023/04/11 10:04:15;;;;;;;3.43;1.10;;;;;;;;;;5047816;28;20590;-78
2023/04/11 10:07:01;;;;;;;3.90;1.10;;;;;;;;;;5051703;28;20225;-74
2023/04/11 10:09:27;;;;;;;5.00;1.67;;;;;;;;;;5052096;28;20189;-76
2023/04/11 10:11:54;;;;;;;4.47;1.53;;;;;;;;;;5068851;28;20559;-75
2023/04/11 10:14:40;;;;;;;7.50;1.73;;;;;;;;;;5053002;28;20157;-77
2023/04/11 10:17:13;;;;;;;3.37;1.20;;;;;;;;;;5051518;28;20303;-74
2023/04/11 10:19:39;;;;;;;6.27;1.70;;;;;;;;;;5052632;28;20178;-75
2023/04/11 10:22:05;;;;;;;5.47;1.53;;;;;;;;;;5049011;28;20233;-73
2023/04/11 10:24:31;;;;;;;3.10;1.50;;;;;;;;;;5048833;28;20186;-74
2023/04/11 10:26:59;;;;;;;6.03;1.40;;;;;;;;;;5047313;28;20210;-74
2023/04/11 10:29:32;;;;;;;3.40;1.30;;;;;;;;;;5047754;28;20634;-74
2023/04/11 10:32:08;;;;;;;5.83;1.50;;;;;;;;;;5051235;28;20185;-74
2023/04/11 10:34:37;;;;;;;3.57;1.33;;;;;;;;;;5050757;28;20174;-74
2023/04/11 10:37:04;;;;;;;3.10;1.10;;;;;;;;;;5051017;28;20186;-74
2023/04/11 10:39:49;;;;;;;8.20;1.67;;;;;;;;;;5050256;28;20189;-74
2023/04/11 10:42:26;;;;;;;4.17;1.37;;;;;;;;;;5044469;28;20244;-74
2023/04/11 10:45:13;;;;;;;4.87;1.37;;;;;;;;;;5051083;28;20283;-74
2023/04/11 10:47:39;;;;;;;3.73;1.50;;;;;;;;;;5047405;28;20244;-74
2023/04/11 10:50:27;;;;;;;3.83;1.50;;;;;;;;;;5047830;28;20189;-74
2023/04/11 10:53:01;;;;;;;6.00;1.40;;;;;;;;;;5048362;28;21776;-77
2023/04/11 10:55:28;;;;;;;6.13;1.20;;;;;;;;;;5049353;28;20235;-77
2023/04/11 10:58:05;;;;;;;8.03;2.13;;;;;;;;;;5047491;28;20185;-77
2023/04/11 11:00:44;;;;;;;7.87;1.60;;;;;;;;;;5046012;28;20192;-74
2023/04/11 11:03:17;;;;;;;4.80;1.50;;;;;;;;;;5047839;28;20270;-74
2023/04/11 11:05:43;;;;;;;4.10;1.60;;;;;;;;;;5046992;28;20193;-74
2023/04/11 11:08:10;;;;;;;7.17;1.70;;;;;;;;;;5046389;28;20202;-74
2023/04/11 11:10:39;;;;;;;5.17;1.50;;;;;;;;;;5040346;28;20186;-74
2023/04/11 11:13:05;;;;;;;4.43;1.50;;;;;;;;;;5044453;28;20228;-74
2023/04/11 11:15:38;;;;;;;3.53;1.30;;;;;;;;;;5046952;28;20274;-74
2023/04/11 11:18:07;;;;;;;3.97;1.30;;;;;;;;;;5047419;28;20185;-74
2023/04/11 11:20:34;;;;;;;8.30;1.67;;;;;;;;;;5045681;28;20236;-74
2023/04/11 11:23:01;;;;;;;5.40;1.47;;;;;;;;;;5047511;28;20197;-75
2023/04/11 11:25:27;;;;;;;2.50;1.20;;;;;;;;;;5048091;28;20272;-74
2023/04/11 11:27:58;;;;;;;4.30;1.37;;;;;;;;;;5054161;28;20231;-74
2023/04/11 11:30:24;;;;;;;3.73;1.30;;;;;;;;;;5045920;28;20267;-74
2023/04/11 11:32:50;;;;;;;5.93;1.20;;;;;;;;;;5047070;28;20209;-74
2023/04/11 11:35:17;;;;;;;3.43;0.90;;;;;;;;;;5044954;28;20178;-74
2023/04/11 11:37:43;;;;;;;3.53;1.23;;;;;;;;;;5046919;28;20182;-77
2023/04/11 11:40:12;;;;;;;4.73;1.40;;;;;;;;;;5047047;28;20192;-77
2023/04/11 11:42:41;;;;;;;5.03;1.33;;;;;;;;;;5044908;28;20213;-77
2023/04/11 11:45:15;;;;;;;3.47;1.40;;;;;;;;;;5045741;28;20276;-76
2023/04/11 11:47:42;;;;;;;3.17;1.30;;;;;;;;;;5048955;28;20274;-74
2023/04/11 11:50:08;;;;;;;5.13;1.23;;;;;;;;;;5050831;28;20219;-77
2023/04/11 11:52:35;;;;;;;3.57;1.50;;;;;;;;;;5049049;28;20331;-76
2023/04/11 11:55:04;;;;;;;4.83;1.30;;;;;;;;;;5048823;28;20179;-77
2023/04/11 11:57:31;;;;;;;5.20;1.67;;;;;;;;;;5049916;28;20611;-78
2023/04/11 12:00:00;;;;;;;7.53;1.80;;;;;;;;;;5047338;28;20593;-78
2023/04/11 12:02:26;;;;;;;4.47;1.10;;;;;;;;;;5049283;28;20278;-78
2023/04/11 12:04:56;;;;;;;4.37;1.50;;;;;;;;;;5050566;28;20263;-78
2023/04/11 12:07:22;;;;;;;4.27;1.50;;;;;;;;;;5050032;28;20228;-79
2023/04/11 12:09:49;;;;;;;4.30;1.30;;;;;;;;;;5049190;28;20641;-80
2023/04/11 12:12:16;;;;;;;4.57;1.40;;;;;;;;;;5046774;28;20380;-77
2023/04/11 12:14:52;;;;;;;4.00;1.40;;;;;;;;;;5047343;28;20417;-77
2023/04/11 12:17:23;;;;;;;4.47;1.70;;;;;;;;;;5048905;28;20192;-77
2023/04/11 12:19:56;;;;;;;3.27;1.40;;;;;;;;;;5047997;28;20763;-77
2023/04/11 12:22:25;;;;;;;4.77;1.20;;;;;;;;;;5045941;28;20274;-77
2023/04/11 12:24:53;;;;;;;2.80;1.20;;;;;;;;;;5051018;28;20207;-77
2023/04/11 12:27:32;;;;;;;3.33;1.33;;;;;;;;;;5050652;28;20672;-78
2023/04/11 12:30:04;;;;;;;3.33;1.13;;;;;;;;;;5051046;28;20181;-79
2023/04/11 12:32:36;;;;;;;2.50;1.10;;;;;;;;;;5049587;28;20305;-78
2023/04/11 12:35:05;;;;;;;2.30;1.30;;;;;;;;;;5034974;28;20268;-79
2023/04/11 12:37:32;;;;;;;1.90;1.17;;;;;;;;;;5051738;28;20212;-78
2023/04/11 12:39:59;;;;;;;3.53;1.00;;;;;;;;;;5051092;28;20203;-78
2023/04/11 12:42:25;;;;;;;2.90;1.10;;;;;;;;;;5051985;28;20293;-77
2023/04/11 12:44:51;;;;;;;3.33;1.13;;;;;;;;;;5052940;28;20217;-77
2023/04/11 12:47:18;;;;;;;2.27;0.90;;;;;;;;;;5054150;28;20249;-78
2023/04/11 12:49:44;;;;;;;4.50;1.30;;;;;;;;;;5053690;28;20223;-77
2023/04/11 12:52:10;;;;;;;4.37;1.40;;;;;;;;;;5052430;28;20206;-78
2023/04/11 12:54:36;;;;;;;5.13;1.30;;;;;;;;;;5052129;28;20186;-79
2023/04/11 12:57:02;;;;;;;3.67;1.50;;;;;;;;;;5052451;28;20721;-79
2023/04/11 12:59:29;;;;;;;2.80;1.10;;;;;;;;;;5053370;28;20178;-80
2023/04/11 13:01:56;;;;;;;2.47;1.20;;;;;;;;;;5049027;28;20186;-81
2023/04/11 13:04:24;;;;;;;3.87;1.27;;;;;;;;;;5048927;28;20189;-78
2023/04/11 13:06:51;;;;;;;3.33;1.20;;;;;;;;;;5050490;28;20999;-80
2023/04/11 13:09:17;;;;;;;4.10;1.20;;;;;;;;;;5048560;28;20193;-79
2023/04/11 13:11:43;;;;;;;2.83;1.50;;;;;;;;;;5053217;28;20197;-79
2023/04/11 13:14:10;;;;;;;5.20;1.30;;;;;;;;;;5053227;28;20166;-79
2023/04/11 13:16:36;;;;;;;2.20;1.17;;;;;;;;;;5050795;28;20186;-79
2023/04/11 13:19:02;;;;;;;3.43;1.40;;;;;;;;;;5053065;28;20190;-79
2023/04/11 13:21:28;;;;;;;5.90;1.40;;;;;;;;;;5052374;28;20220;-79
2023/04/11 13:23:55;;;;;;;7.07;1.50;;;;;;;;;;5052009;28;20198;-79
2023/04/11 13:26:21;;;;;;;3.63;1.40;;;;;;;;;;5050337;28;20213;-78
2023/04/11 13:28:47;;;;;;;3.10;1.23;;;;;;;;;;5051959;28;20261;-78
2023/04/11 13:31:13;;;;;;;4.23;1.33;;;;;;;;;;5051493;28;20190;-79
2023/04/11 13:33:39;;;;;;;2.87;1.20;;;;;;;;;;5051759;28;20209;-78
2023/04/11 13:36:06;;;;;;;3.23;1.30;;;;;;;;;;5049147;28;20182;-79
2023/04/11 13:38:32;;;;;;;5.07;1.60;;;;;;;;;;5052488;28;20273;-80
2023/04/11 13:40:59;;;;;;;4.50;1.30;;;;;;;;;;5050055;28;20194;-79
2023/04/11 13:43:25;;;;;;;4.03;1.30;;;;;;;;;;5051940;28;20576;-80
2023/04/11 13:45:51;;;;;;;3.07;1.30;;;;;;;;;;5017829;28;20336;-78
2023/04/11 13:48:21;;;;;;;4.00;1.20;;;;;;;;;;5051782;28;20197;-79
2023/04/11 13:50:48;;;;;;;9.63;2.03;;;;;;;;;;5034056;28;20576;-78
2023/04/11 13:53:14;;;;;;;2.30;1.20;;;;;;;;;;5050604;28;20213;-78
2023/04/11 13:55:40;;;;;;;2.47;1.33;;;;;;;;;;5051489;28;20189;-79
2023/04/11 13:58:06;;;;;;;4.80;1.33;;;;;;;;;;5066994;28;20174;-79
2023/04/11 14:00:34;;;;;;;2.93;1.43;;;;;;;;;;5050033;28;20182;-79
2023/04/11 14:03:01;;;;;;;3.07;1.20;;;;;;;;;;5053182;28;20248;-79
2023/04/11 14:05:30;;;;;;;5.07;1.33;;;;;;;;;;5053025;28;20293;-79
2023/04/11 14:07:56;;;;;;;4.00;1.20;;;;;;;;;;5049158;28;20267;-79
2023/04/11 14:10:22;;;;;;;2.67;1.20;;;;;;;;;;5051038;28;20605;-78
2023/04/11 14:12:48;;;;;;;5.50;1.27;;;;;;;;;;5051145;28;20242;-78
2023/04/11 14:15:15;;;;;;;6.13;1.40;;;;;;;;;;5043103;28;20209;-78
2023/04/11 14:17:42;;;;;;;5.17;1.10;;;;;;;;;;5051808;28;20209;-79
2023/04/11 14:20:10;;;;;;;3.33;1.20;;;;;;;;;;5050733;28;20216;-80
2023/04/11 14:22:36;;;;;;;2.97;1.20;;;;;;;;;;5049179;28;20297;-79
2023/04/11 14:25:04;;;;;;;4.90;1.30;;;;;;;;;;5049090;28;20219;-79
2023/04/11 14:27:30;;;;;;;6.97;1.80;;;;;;;;;;5051709;28;20214;-82
2023/04/11 14:29:56;;;;;;;3.60;1.30;;;;;;;;;;5050262;28;20208;-80
2023/04/11 14:32:22;;;;;;;3.07;1.30;;;;;;;;;;5051819;28;20205;-80
2023/04/11 14:34:48;;;;;;;2.57;1.20;;;;;;;;;;5050556;28;20180;-79
2023/04/11 14:37:15;;;;;;;2.83;1.17;;;;;;;;;;5050793;28;20256;-80
2023/04/11 14:39:41;;;;;;;4.00;1.30;;;;;;;;;;5054546;28;20245;-80
2023/04/11 14:42:08;;;;;;;2.03;1.10;;;;;;;;;;5053251;28;20205;-80
2023/04/11 14:44:37;;;;;;;3.10;1.33;;;;;;;;;;5036368;28;20174;-80
2023/04/11 14:47:04;;;;;;;4.43;1.30;;;;;;;;;;5052529;28;20227;-79